Terminal Aerodrome Forecast
Issued by NWS Twin Cities, MN

Home | Current Version | Previous Version | Text Only | Print | Product List | Glossary On
Versions: 1 2 3 4 5 6 7 8 9 10 11 12 13 14 15 16 17 18 19 20 21 22 23 24 25 26 27 28 29 30 31 32 33
000
FTUS43 KMPX 210500
TAFMSP
TAF
KMSP 210539Z 2106/2212 15008KT 6SM BR OVC014
     FM210800 15008KT 5SM BR OVC008
     FM211600 15010KT 6SM BR SCT008 OVC014
     FM220200 14013KT 5SM BR OVC012
     FM220600 14013KT 4SM -RA BR OVC008=

USA.gov is the U.S. government's official web portal to all federal, state and local government web resources and services.